TFM - Tactical Decision Aid
ID: Runway Winds: CIG/VIS Threshold:

KPHL - Philadelphia Intl, PA, US

Updated at: 1804 UTC 26 Oct 2021
Latest TAF at: 1741 UTC 26 Oct 2021

TAF Board

Time1754Z 26/19Z 26/20Z 26/21Z 26/22Z 26/23Z 27/00Z 27/01Z 27/02Z 27/03Z 27/04Z 27/05Z 27/06Z 27/07Z>>
Type OBS PRVL PRVL PRVL PRVL PRVL PRVL PRVL PRVL PRVL PRVL PRVL PRVL PRVL
VIS 10 >6 >6 >6 >6 >6 >6 >6 6 6 6 6 6 6
CIG 36 30 25 25 25 25 25 25 20 20 20 20 20 20
Cover OVC BKN OVC OVC OVC OVC OVC OVC OVC OVC OVC OVC BKN BKN
FltCat VFR MVFR MVFR MVFR MVFR MVFR MVFR MVFR MVFR MVFR MVFR MVFR MVFR MVFR
WX -- -- VCSH VCSH VCSH VCSH VCSH VCSH RA RA RA RA BR BR
WDir 270 260 320 320 320 320 320 320 340 340 340 340 350 350
WSpd 17 13 11 11 11 11 11 11 12 12 12 12 14 14
WGst 25 -- 22 22 22 22 22 22 21 21 21 21 23 23

TDA Impact Legend

  None Marginal Slight Moderate High
Visibility (sm) >5 3≤X≤5 1≤X<3 0.5≤X<1 <0.5
Ceiling (100 ft) >30 10≤X≤30 4≤X<10 2≤X<4 <2
Wind Speed (kt) <15 15≤X<25 25≤X<30 ≥30
Wind Gust (kt) <15 15≤X<25 25≤X<35 ≥35
Weather No Wx Reported VCTS -TS,-FZRA TS,FZRA +TS,+FZRA
TAF
KPHL 261741Z 2618/2724 26013KT P6SM SCT020 BKN030
  FM262000 32011G22KT P6SM VCSH OVC025
  FM270200 34012G21KT 6SM RA OVC020
  FM270600 35014G23KT 6SM BR BKN020
  FM271700 35013G22KT 6SM BR BKN110


METAR
KPHL 261754Z 27017G25KT 10SM SCT023 OVC036 18/13 A2939 RMK AO2 SLP951 60000 T01830133 10189 20156 56016
KPHL 261654Z 26013KT 10SM SCT020 SCT028 BKN034 19/14 A2940 RMK AO2 RAB03E16 SLP954 P0000 T01890144
KPHL 261651Z 27012KT 10SM SCT020 SCT028 OVC034 18/14 A2940 RMK AO2 RAB03E16 P0000
KPHL 261554Z 26007KT 240V300 10SM BKN015 OVC027 17/14 A2942 RMK AO2 SLP961 T01720144 $
KPHL 261505Z 30012KT 10SM BKN015 BKN055 BKN095 17/14 A2943 RMK AO2 T01720139 VISNO W $
KPHL 261454Z 31012KT 10SM BKN014 BKN070 BKN095 17/14 A2944 RMK AO2 SLP967 60000 T01670139 58011 VISNO W $

Radar Display
Forecast Discussion